Shin Itikawa Maru — JD3490 — position and weather

sailwx.info

Track history (hours):
 
Tides and Currents Weather Stations Pressure Air Temp Water Temp Dewpoint Dewpoint Depression Visibility Wind Speed Wind Dir Waves Ship Positions

Shin Itikawa Maru

Last reported at 2017-Nov-24 05:46 UTC. Time now 2017-Nov-24 13:12 UTC.
Position N 34°60' E 139°28'.

Length 84 m; draft 4 m.

Type: Cargo ship. MMSI: 431004252.

Date/timePositionNaut miles runAvg speedWind from/ knotsBaromVisibWave heightAir tempDewpointWater temp
2017-Nov-24 05:46N 34°60' E 139°28'3 8.7
2017-Nov-24 05:29N 35°01' E 139°30'4 8.8
2017-Nov-24 05:00N 35°03' E 139°35'5 9.2
2017-Nov-24 04:31N 35°06' E 139°39'5 9.8
2017-Nov-24 04:00N 35°09' E 139°44'611.1
2017-Nov-24 03:30N 35°14' E 139°46'612.3
2017-Nov-24 03:00N 35°20' E 139°42'511.0
2017-Nov-24 02:30N 35°25' E 139°44'611.9
2017-Nov-24 02:00N 35°29' E 139°50'612.2
2017-Nov-24 01:29N 35°34' E 139°55'611.6
2017-Nov-24 01:01N 35°38' E 139°59'2 0.3
2017-Nov-23 16:56N 35°40' E 139°57'4 5.4
2017-Nov-23 16:17N 35°37' E 139°57'1 0.1
2017-Nov-23 09:53N 35°36' E 139°56'0 0.0
2017-Nov-22 23:25N 35°36' E 139°56'  
2017-Nov-18 19:48N 34°59' E 139°28'412.1
2017-Nov-18 19:29N 35°01' E 139°32'612.5
2017-Nov-18 19:00N 35°05' E 139°38'612.8
2017-Nov-18 18:30N 35°09' E 139°44'611.7
2017-Nov-18 18:00N 35°14' E 139°46'611.2
2017-Nov-18 17:30N 35°19' E 139°43'510.6
2017-Nov-18 17:00N 35°25' E 139°44'612.0
2017-Nov-18 16:30N 35°28' E 139°49'4 0.3
2017-Nov-18 03:48N 35°31' E 139°53'412.1
2017-Nov-18 03:29N 35°27' E 139°50'612.2
2017-Nov-18 03:00N 35°23' E 139°46'611.2
2017-Nov-18 02:30N 35°17' E 139°45'610.9
2017-Nov-18 02:00N 35°12' E 139°47'611.5
2017-Nov-18 01:30N 35°07' E 139°45'611.9
2017-Nov-18 01:00N 35°03' E 139°39'612.0
2017-Nov-18 00:29N 34°59' E 139°33'  
2017-Nov-14 16:30N 34°59' E 139°27'611.6
2017-Nov-14 16:00N 35°02' E 139°33'611.8
2017-Nov-14 15:30N 35°06' E 139°39'612.0
2017-Nov-14 15:00N 35°10' E 139°44'611.4
2017-Nov-14 14:30N 35°16' E 139°46'612.1
2017-Nov-14 14:00N 35°21' E 139°42'510.9
2017-Nov-14 13:31N 35°26' E 139°45'612.1
2017-Nov-14 13:00N 35°29' E 139°51'  
Track history (hours):
 
Tides and Currents Weather Stations Pressure Air Temp Water Temp Dewpoint Dewpoint Depression Visibility Wind Speed Wind Dir Waves Ship Positions

Shin Itikawa Maru

Last reported at 2017-Nov-24 05:46 UTC. Time now 2017-Nov-24 13:12 UTC.
Position N 34°60' E 139°28'.

Length 84 m; draft 4 m.

Type: Cargo ship. MMSI: 431004252.

Date/timePositionNaut miles runAvg speedWind from/ knotsBaromVisibWave heightAir tempDewpointWater temp
2017-Nov-24 05:46N 34°60' E 139°28'3 8.7
2017-Nov-24 05:29N 35°01' E 139°30'4 8.8
2017-Nov-24 05:00N 35°03' E 139°35'5 9.2
2017-Nov-24 04:31N 35°06' E 139°39'5 9.8
2017-Nov-24 04:00N 35°09' E 139°44'611.1
2017-Nov-24 03:30N 35°14' E 139°46'612.3
2017-Nov-24 03:00N 35°20' E 139°42'511.0
2017-Nov-24 02:30N 35°25' E 139°44'611.9
2017-Nov-24 02:00N 35°29' E 139°50'612.2
2017-Nov-24 01:29N 35°34' E 139°55'611.6
2017-Nov-24 01:01N 35°38' E 139°59'2 0.3
2017-Nov-23 16:56N 35°40' E 139°57'4 5.4
2017-Nov-23 16:17N 35°37' E 139°57'1 0.1
2017-Nov-23 09:53N 35°36' E 139°56'0 0.0
2017-Nov-22 23:25N 35°36' E 139°56'  
2017-Nov-18 19:48N 34°59' E 139°28'412.1
2017-Nov-18 19:29N 35°01' E 139°32'612.5
2017-Nov-18 19:00N 35°05' E 139°38'612.8
2017-Nov-18 18:30N 35°09' E 139°44'611.7
2017-Nov-18 18:00N 35°14' E 139°46'611.2
2017-Nov-18 17:30N 35°19' E 139°43'510.6
2017-Nov-18 17:00N 35°25' E 139°44'612.0
2017-Nov-18 16:30N 35°28' E 139°49'4 0.3
2017-Nov-18 03:48N 35°31' E 139°53'412.1
2017-Nov-18 03:29N 35°27' E 139°50'612.2
2017-Nov-18 03:00N 35°23' E 139°46'611.2
2017-Nov-18 02:30N 35°17' E 139°45'610.9
2017-Nov-18 02:00N 35°12' E 139°47'611.5
2017-Nov-18 01:30N 35°07' E 139°45'611.9
2017-Nov-18 01:00N 35°03' E 139°39'612.0
2017-Nov-18 00:29N 34°59' E 139°33'  
2017-Nov-14 16:30N 34°59' E 139°27'611.6
2017-Nov-14 16:00N 35°02' E 139°33'611.8
2017-Nov-14 15:30N 35°06' E 139°39'612.0
2017-Nov-14 15:00N 35°10' E 139°44'611.4
2017-Nov-14 14:30N 35°16' E 139°46'612.1
2017-Nov-14 14:00N 35°21' E 139°42'510.9
2017-Nov-14 13:31N 35°26' E 139°45'612.1
2017-Nov-14 13:00N 35°29' E 139°51'  

Dump ship's entire track history